PWSweather.com
Personal Weather Stations
Station Observations
KMDSOLOM1
solomons, Solomons, MD 20688

solomonsSolomons, MD 20688

Lat: 38.32, Lon: -76.45

Elevation: 5

Station Type:

http://www.act-us.info/weather

High Low Average
Temperature 71.0°F21.7°C 60.7°F15.9°C 65.7°F18.7°C
Dew Point 65.4°F18.6°C 59.5°F15.3°C 62.1°F16.7°C
Winds 25.0 mph 40.2 kmh 1.0 mph 1.6 kmh 12.0 mph E19.3 kmh E
Wind Gusts 26.0 mph41.8 kmh 3.0 mph4.8 kmh 17.0 mph27.4 kmh
Humidity 97% 76% 88%
Pressure 29.80 in1009.1 mb 29.56 in1001.0 mb -
Precipitation 0.00 in0.0 mm - -
Hour Temp Dew Point Humidity Winds Wind Gusts Pressure Precip Precip Rate Daily Precip Total
12:00 AM 67.9°F19.9°C 60.1°F15.6°C 76% 7.0 mph E11.3 kmh E 17.0 mph27.4 kmh 29.80 in1009.1 mb 0.00 in0.0 mm 0.00 in0.0 mm 0.00 in0.0 mm
12:05 AM 67.7°F19.8°C 60.2°F15.7°C 77% 8.0 mph ESE12.9 kmh ESE 17.0 mph27.4 kmh 29.80 in1009.1 mb 0.00 in0.0 mm 0.00 in0.0 mm 0.00 in0.0 mm
12:10 AM 67.5°F19.7°C 60.0°F15.6°C 77% 12.0 mph E19.3 kmh E 12.0 mph19.3 kmh 29.80 in1009.1 mb 0.00 in0.0 mm 0.00 in0.0 mm 0.00 in0.0 mm
12:15 AM 67.6°F19.8°C 60.1°F15.6°C 77% 9.0 mph ESE14.5 kmh ESE 17.0 mph27.4 kmh 29.80 in1009.1 mb 0.00 in0.0 mm 0.00 in0.0 mm 0.00 in0.0 mm
12:20 AM 67.5°F19.7°C 60.0°F15.6°C 77% 7.0 mph ESE11.3 kmh ESE 17.0 mph27.4 kmh 29.80 in1009.1 mb 0.00 in0.0 mm 0.00 in0.0 mm 0.00 in0.0 mm
12:25 AM 67.3°F19.6°C 59.9°F15.5°C 77% 7.0 mph SE11.3 kmh SE 7.0 mph11.3 kmh 29.80 in1009.1 mb 0.00 in0.0 mm 0.00 in0.0 mm 0.00 in0.0 mm
12:30 AM 67.1°F19.5°C 60.0°F15.6°C 78% 7.0 mph ESE11.3 kmh ESE 13.0 mph20.9 kmh 29.80 in1009.1 mb 0.00 in0.0 mm 0.00 in0.0 mm 0.00 in0.0 mm
12:35 AM 67.2°F19.6°C 60.1°F15.6°C 78% 4.0 mph E6.4 kmh E 25.0 mph40.2 kmh 29.80 in1009.1 mb 0.00 in0.0 mm 0.00 in0.0 mm 0.00 in0.0 mm
12:40 AM 67.3°F19.6°C 59.9°F15.5°C 77% 8.0 mph SE12.9 kmh SE 10.0 mph16.1 kmh 29.80 in1009.1 mb 0.00 in0.0 mm 0.00 in0.0 mm 0.00 in0.0 mm
12:45 AM 67.3°F19.6°C 59.9°F15.5°C 77% 6.0 mph ESE9.7 kmh ESE 15.0 mph24.1 kmh 29.80 in1009.1 mb 0.00 in0.0 mm 0.00 in0.0 mm 0.00 in0.0 mm
12:50 AM 67.3°F19.6°C 59.9°F15.5°C 77% 9.0 mph SE14.5 kmh SE 15.0 mph24.1 kmh 29.80 in1009.1 mb 0.00 in0.0 mm 0.00 in0.0 mm 0.00 in0.0 mm
12:55 AM 67.4°F19.7°C 60.0°F15.6°C 77% 4.0 mph SE6.4 kmh SE 8.0 mph12.9 kmh 29.80 in1009.1 mb 0.00 in0.0 mm 0.00 in0.0 mm 0.00 in0.0 mm
01:00 AM 67.4°F19.7°C 60.0°F15.6°C 77% 6.0 mph ESE9.7 kmh ESE 15.0 mph24.1 kmh 29.79 in1008.8 mb 0.00 in0.0 mm 0.00 in0.0 mm 0.00 in0.0 mm
01:05 AM 67.3°F19.6°C 59.9°F15.5°C 77% 8.0 mph SE12.9 kmh SE 15.0 mph24.1 kmh 29.79 in1008.8 mb 0.00 in0.0 mm 0.00 in0.0 mm 0.00 in0.0 mm
01:10 AM 67.2°F19.6°C 59.8°F15.4°C 77% 6.0 mph ESE9.7 kmh ESE 8.0 mph12.9 kmh 29.79 in1008.8 mb 0.00 in0.0 mm 0.00 in0.0 mm 0.00 in0.0 mm
01:15 AM 67.0°F19.4°C 59.9°F15.5°C 78% 7.0 mph SE11.3 kmh SE 17.0 mph27.4 kmh 29.79 in1008.8 mb 0.00 in0.0 mm 0.00 in0.0 mm 0.00 in0.0 mm
01:20 AM 67.0°F19.4°C 59.9°F15.5°C 78% 10.0 mph E16.1 kmh E 24.0 mph38.6 kmh 29.78 in1008.5 mb 0.00 in0.0 mm 0.00 in0.0 mm 0.00 in0.0 mm
01:25 AM 67.0°F19.4°C 59.9°F15.5°C 78% 9.0 mph SE14.5 kmh SE 10.0 mph16.1 kmh 29.77 in1008.1 mb 0.00 in0.0 mm 0.00 in0.0 mm 0.00 in0.0 mm
01:30 AM 67.0°F19.4°C 59.9°F15.5°C 78% 14.0 mph ESE22.5 kmh ESE 14.0 mph22.5 kmh 29.78 in1008.5 mb 0.00 in0.0 mm 0.00 in0.0 mm 0.00 in0.0 mm
01:35 AM 67.0°F19.4°C 59.9°F15.5°C 78% 5.0 mph SE8.0 kmh SE 19.0 mph30.6 kmh 29.78 in1008.5 mb 0.00 in0.0 mm 0.00 in0.0 mm 0.00 in0.0 mm
01:40 AM 66.8°F19.3°C 60.1°F15.6°C 79% 8.0 mph ESE12.9 kmh ESE 8.0 mph12.9 kmh 29.77 in1008.1 mb 0.00 in0.0 mm 0.00 in0.0 mm 0.00 in0.0 mm
01:45 AM 66.7°F19.3°C 60.0°F15.6°C 79% 9.0 mph E14.5 kmh E 19.0 mph30.6 kmh 29.77 in1008.1 mb 0.00 in0.0 mm 0.00 in0.0 mm 0.00 in0.0 mm
01:50 AM 66.7°F19.3°C 60.0°F15.6°C 79% 9.0 mph ESE14.5 kmh ESE 23.0 mph37.0 kmh 29.77 in1008.1 mb 0.00 in0.0 mm 0.00 in0.0 mm 0.00 in0.0 mm
01:55 AM 66.5°F19.2°C 60.2°F15.7°C 80% 6.0 mph ESE9.7 kmh ESE 8.0 mph12.9 kmh 29.77 in1008.1 mb 0.00 in0.0 mm 0.00 in0.0 mm 0.00 in0.0 mm
02:00 AM 66.7°F19.3°C 60.3°F15.7°C 80% 6.0 mph ESE9.7 kmh ESE 19.0 mph30.6 kmh 29.77 in1008.1 mb 0.00 in0.0 mm 0.00 in0.0 mm 0.00 in0.0 mm
02:05 AM 66.5°F19.2°C 60.2°F15.7°C 80% 10.0 mph ESE16.1 kmh ESE 19.0 mph30.6 kmh 29.77 in1008.1 mb 0.00 in0.0 mm 0.00 in0.0 mm 0.00 in0.0 mm
02:10 AM 66.4°F19.1°C 60.1°F15.6°C 80% 11.0 mph ESE17.7 kmh ESE 14.0 mph22.5 kmh 29.77 in1008.1 mb 0.00 in0.0 mm 0.00 in0.0 mm 0.00 in0.0 mm
02:15 AM 66.3°F19.1°C 60.3°F15.7°C 81% 9.0 mph ESE14.5 kmh ESE 19.0 mph30.6 kmh 29.77 in1008.1 mb 0.00 in0.0 mm 0.00 in0.0 mm 0.00 in0.0 mm
02:20 AM 66.4°F19.1°C 60.4°F15.8°C 81% 3.0 mph ESE4.8 kmh ESE 21.0 mph33.8 kmh 29.77 in1008.1 mb 0.00 in0.0 mm 0.00 in0.0 mm 0.00 in0.0 mm
02:25 AM 66.3°F19.1°C 60.3°F15.7°C 81% 6.0 mph ESE9.7 kmh ESE 14.0 mph22.5 kmh 29.77 in1008.1 mb 0.00 in0.0 mm 0.00 in0.0 mm 0.00 in0.0 mm
02:30 AM 66.3°F19.1°C 60.3°F15.7°C 81% 6.0 mph E9.7 kmh E 17.0 mph27.4 kmh 29.77 in1008.1 mb 0.00 in0.0 mm 0.00 in0.0 mm 0.00 in0.0 mm
02:35 AM 66.3°F19.1°C 60.3°F15.7°C 81% 3.0 mph ESE4.8 kmh ESE 21.0 mph33.8 kmh 29.76 in1007.8 mb 0.00 in0.0 mm 0.00 in0.0 mm 0.00 in0.0 mm
02:40 AM 66.3°F19.1°C 60.7°F15.9°C 82% 4.0 mph ESE6.4 kmh ESE 10.0 mph16.1 kmh 29.76 in1007.8 mb 0.00 in0.0 mm 0.00 in0.0 mm 0.00 in0.0 mm
02:45 AM 66.3°F19.1°C 60.7°F15.9°C 82% 8.0 mph ESE12.9 kmh ESE 17.0 mph27.4 kmh 29.76 in1007.8 mb 0.00 in0.0 mm 0.00 in0.0 mm 0.00 in0.0 mm
02:50 AM 66.1°F18.9°C 60.5°F15.8°C 82% 4.0 mph SE6.4 kmh SE 17.0 mph27.4 kmh 29.76 in1007.8 mb 0.00 in0.0 mm 0.00 in0.0 mm 0.00 in0.0 mm
02:55 AM 66.0°F18.9°C 60.4°F15.8°C 82% 13.0 mph E20.9 kmh E 14.0 mph22.5 kmh 29.77 in1008.1 mb 0.00 in0.0 mm 0.00 in0.0 mm 0.00 in0.0 mm
03:00 AM 66.1°F18.9°C 60.8°F16.0°C 83% 9.0 mph E14.5 kmh E 15.0 mph24.1 kmh 29.76 in1007.8 mb 0.00 in0.0 mm 0.00 in0.0 mm 0.00 in0.0 mm
03:05 AM 66.0°F18.9°C 60.7°F15.9°C 83% 7.0 mph E11.3 kmh E 15.0 mph24.1 kmh 29.76 in1007.8 mb 0.00 in0.0 mm 0.00 in0.0 mm 0.00 in0.0 mm
03:10 AM 65.9°F18.8°C 60.6°F15.9°C 83% 8.0 mph E12.9 kmh E 8.0 mph12.9 kmh 29.76 in1007.8 mb 0.00 in0.0 mm 0.00 in0.0 mm 0.00 in0.0 mm
03:15 AM 66.0°F18.9°C 60.7°F15.9°C 83% 4.0 mph ESE6.4 kmh ESE 14.0 mph22.5 kmh 29.76 in1007.8 mb 0.00 in0.0 mm 0.00 in0.0 mm 0.00 in0.0 mm
03:20 AM 66.1°F18.9°C 60.8°F16.0°C 83% 2.0 mph ESE3.2 kmh ESE 14.0 mph22.5 kmh 29.76 in1007.8 mb 0.00 in0.0 mm 0.00 in0.0 mm 0.00 in0.0 mm
03:25 AM 66.1°F18.9°C 61.1°F16.2°C 84% 4.0 mph ESE6.4 kmh ESE 6.0 mph9.7 kmh 29.76 in1007.8 mb 0.00 in0.0 mm 0.00 in0.0 mm 0.00 in0.0 mm
03:30 AM 66.1°F18.9°C 60.8°F16.0°C 83% 5.0 mph SE8.0 kmh SE 12.0 mph19.3 kmh 29.76 in1007.8 mb 0.00 in0.0 mm 0.00 in0.0 mm 0.00 in0.0 mm
03:35 AM 66.0°F18.9°C 61.0°F16.1°C 84% 7.0 mph SE11.3 kmh SE 12.0 mph19.3 kmh 29.76 in1007.8 mb 0.00 in0.0 mm 0.00 in0.0 mm 0.00 in0.0 mm
03:40 AM 66.1°F18.9°C 61.1°F16.2°C 84% 6.0 mph ESE9.7 kmh ESE 7.0 mph11.3 kmh 29.76 in1007.8 mb 0.00 in0.0 mm 0.00 in0.0 mm 0.00 in0.0 mm
03:45 AM 66.2°F19.0°C 61.2°F16.2°C 84% 5.0 mph SE8.0 kmh SE 15.0 mph24.1 kmh 29.75 in1007.5 mb 0.00 in0.0 mm 0.00 in0.0 mm 0.00 in0.0 mm
03:50 AM 66.1°F18.9°C 61.1°F16.2°C 84% 7.0 mph ESE11.3 kmh ESE 15.0 mph24.1 kmh 29.75 in1007.5 mb 0.00 in0.0 mm 0.00 in0.0 mm 0.00 in0.0 mm
03:55 AM 66.1°F18.9°C 61.1°F16.2°C 84% 3.0 mph SE4.8 kmh SE 4.0 mph6.4 kmh 29.75 in1007.5 mb 0.00 in0.0 mm 0.00 in0.0 mm 0.00 in0.0 mm
04:00 AM 66.1°F18.9°C 61.1°F16.2°C 84% 2.0 mph SE3.2 kmh SE 9.0 mph14.5 kmh 29.75 in1007.5 mb 0.00 in0.0 mm 0.00 in0.0 mm 0.00 in0.0 mm
04:05 AM 66.1°F18.9°C 61.1°F16.2°C 84% 3.0 mph ESE4.8 kmh ESE 11.0 mph17.7 kmh 29.75 in1007.5 mb 0.00 in0.0 mm 0.00 in0.0 mm 0.00 in0.0 mm
04:10 AM 65.9°F18.8°C 61.3°F16.3°C 85% 3.0 mph ESE4.8 kmh ESE 3.0 mph4.8 kmh 29.75 in1007.5 mb 0.00 in0.0 mm 0.00 in0.0 mm 0.00 in0.0 mm
04:15 AM 65.8°F18.8°C 61.2°F16.2°C 85% 7.0 mph ESE11.3 kmh ESE 11.0 mph17.7 kmh 29.74 in1007.1 mb 0.00 in0.0 mm 0.00 in0.0 mm 0.00 in0.0 mm
04:20 AM 65.7°F18.7°C 61.1°F16.2°C 85% 4.0 mph SE6.4 kmh SE 11.0 mph17.7 kmh 29.74 in1007.1 mb 0.00 in0.0 mm 0.00 in0.0 mm 0.00 in0.0 mm
04:25 AM 65.6°F18.7°C 61.0°F16.1°C 85% 3.0 mph ESE4.8 kmh ESE 5.0 mph8.0 kmh 29.74 in1007.1 mb 0.00 in0.0 mm 0.00 in0.0 mm 0.00 in0.0 mm
04:30 AM 65.6°F18.7°C 61.3°F16.3°C 86% 4.0 mph SE6.4 kmh SE 11.0 mph17.7 kmh 29.74 in1007.1 mb 0.00 in0.0 mm 0.00 in0.0 mm 0.00 in0.0 mm
04:35 AM 65.6°F18.7°C 61.3°F16.3°C 86% 1.0 mph ESE1.6 kmh ESE 11.0 mph17.7 kmh 29.74 in1007.1 mb 0.00 in0.0 mm 0.00 in0.0 mm 0.00 in0.0 mm
04:40 AM 65.7°F18.7°C 61.4°F16.3°C 86% 9.0 mph E14.5 kmh E 9.0 mph14.5 kmh 29.74 in1007.1 mb 0.00 in0.0 mm 0.00 in0.0 mm 0.00 in0.0 mm
04:45 AM 65.7°F18.7°C 61.4°F16.3°C 86% 6.0 mph E9.7 kmh E 13.0 mph20.9 kmh 29.73 in1006.8 mb 0.00 in0.0 mm 0.00 in0.0 mm 0.00 in0.0 mm
04:50 AM 65.7°F18.7°C 61.4°F16.3°C 86% 10.0 mph E16.1 kmh E 13.0 mph20.9 kmh 29.73 in1006.8 mb 0.00 in0.0 mm 0.00 in0.0 mm 0.00 in0.0 mm
04:55 AM 65.8°F18.8°C 61.5°F16.4°C 86% 10.0 mph E16.1 kmh E 10.0 mph16.1 kmh 29.73 in1006.8 mb 0.00 in0.0 mm 0.00 in0.0 mm 0.00 in0.0 mm
05:00 AM 65.9°F18.8°C 61.6°F16.4°C 86% 9.0 mph E14.5 kmh E 16.0 mph25.7 kmh 29.73 in1006.8 mb 0.00 in0.0 mm 0.00 in0.0 mm 0.00 in0.0 mm
05:05 AM 65.7°F18.7°C 61.4°F16.3°C 86% 10.0 mph E16.1 kmh E 16.0 mph25.7 kmh 29.73 in1006.8 mb 0.00 in0.0 mm 0.00 in0.0 mm 0.00 in0.0 mm
05:10 AM 65.6°F18.7°C 61.3°F16.3°C 86% 15.0 mph ESE24.1 kmh ESE 15.0 mph24.1 kmh 29.73 in1006.8 mb 0.00 in0.0 mm 0.00 in0.0 mm 0.00 in0.0 mm
05:15 AM 65.5°F18.6°C 61.2°F16.2°C 86% 11.0 mph E17.7 kmh E 16.0 mph25.7 kmh 29.72 in1006.4 mb 0.00 in0.0 mm 0.00 in0.0 mm 0.00 in0.0 mm
05:20 AM 65.4°F18.6°C 61.1°F16.2°C 86% 12.0 mph E19.3 kmh E 16.0 mph25.7 kmh 29.72 in1006.4 mb 0.00 in0.0 mm 0.00 in0.0 mm 0.00 in0.0 mm
05:25 AM 65.2°F18.4°C 60.9°F16.1°C 86% 12.0 mph E19.3 kmh E 12.0 mph19.3 kmh 29.72 in1006.4 mb 0.00 in0.0 mm 0.00 in0.0 mm 0.00 in0.0 mm
05:30 AM 65.1°F18.4°C 61.1°F16.2°C 87% 12.0 mph E19.3 kmh E 13.0 mph20.9 kmh 29.72 in1006.4 mb 0.00 in0.0 mm 0.00 in0.0 mm 0.00 in0.0 mm
05:35 AM 65.1°F18.4°C 61.1°F16.2°C 87% 8.0 mph E12.9 kmh E 14.0 mph22.5 kmh 29.72 in1006.4 mb 0.00 in0.0 mm 0.00 in0.0 mm 0.00 in0.0 mm
05:40 AM 65.0°F18.3°C 61.0°F16.1°C 87% 11.0 mph E17.7 kmh E 11.0 mph17.7 kmh 29.72 in1006.4 mb 0.00 in0.0 mm 0.00 in0.0 mm 0.00 in0.0 mm
05:45 AM 65.2°F18.4°C 61.2°F16.2°C 87% 8.0 mph ESE12.9 kmh ESE 17.0 mph27.4 kmh 29.72 in1006.4 mb 0.00 in0.0 mm 0.00 in0.0 mm 0.00 in0.0 mm
05:50 AM 65.1°F18.4°C 61.1°F16.2°C 87% 11.0 mph E17.7 kmh E 17.0 mph27.4 kmh 29.72 in1006.4 mb 0.00 in0.0 mm 0.00 in0.0 mm 0.00 in0.0 mm
05:55 AM 65.0°F18.3°C 61.4°F16.3°C 88% 11.0 mph E17.7 kmh E 13.0 mph20.9 kmh 29.73 in1006.8 mb 0.00 in0.0 mm 0.00 in0.0 mm 0.00 in0.0 mm
06:00 AM 65.2°F18.4°C 61.6°F16.4°C 88% 8.0 mph ESE12.9 kmh ESE 20.0 mph32.2 kmh 29.73 in1006.8 mb 0.00 in0.0 mm 0.00 in0.0 mm 0.00 in0.0 mm
06:05 AM 65.4°F18.6°C 61.4°F16.3°C 87% 14.0 mph E22.5 kmh E 20.0 mph32.2 kmh 29.73 in1006.8 mb 0.00 in0.0 mm 0.00 in0.0 mm 0.00 in0.0 mm
06:10 AM 65.5°F18.6°C 61.5°F16.4°C 87% 12.0 mph E19.3 kmh E 12.0 mph19.3 kmh 29.74 in1007.1 mb 0.00 in0.0 mm 0.00 in0.0 mm 0.00 in0.0 mm
06:15 AM 65.2°F18.4°C 61.2°F16.2°C 87% 10.0 mph ESE16.1 kmh ESE 15.0 mph24.1 kmh 29.74 in1007.1 mb 0.00 in0.0 mm 0.00 in0.0 mm 0.00 in0.0 mm
06:20 AM 65.2°F18.4°C 61.6°F16.4°C 88% 10.0 mph E16.1 kmh E 15.0 mph24.1 kmh 29.74 in1007.1 mb 0.00 in0.0 mm 0.00 in0.0 mm 0.00 in0.0 mm
06:25 AM 65.3°F18.5°C 61.7°F16.5°C 88% 11.0 mph E17.7 kmh E 12.0 mph19.3 kmh 29.74 in1007.1 mb 0.00 in0.0 mm 0.00 in0.0 mm 0.00 in0.0 mm
06:30 AM 65.3°F18.5°C 61.7°F16.5°C 88% 11.0 mph E17.7 kmh E 18.0 mph29.0 kmh 29.74 in1007.1 mb 0.00 in0.0 mm 0.00 in0.0 mm 0.00 in0.0 mm
06:35 AM 65.4°F18.6°C 61.8°F16.6°C 88% 14.0 mph E22.5 kmh E 18.0 mph29.0 kmh 29.74 in1007.1 mb 0.00 in0.0 mm 0.00 in0.0 mm 0.00 in0.0 mm
06:40 AM 65.5°F18.6°C 61.5°F16.4°C 87% 12.0 mph E19.3 kmh E 12.0 mph19.3 kmh 29.74 in1007.1 mb 0.00 in0.0 mm 0.00 in0.0 mm 0.00 in0.0 mm
06:45 AM 65.4°F18.6°C 61.8°F16.6°C 88% 11.0 mph E17.7 kmh E 13.0 mph20.9 kmh 29.74 in1007.1 mb 0.00 in0.0 mm 0.00 in0.0 mm 0.00 in0.0 mm
06:50 AM 65.7°F18.7°C 62.1°F16.7°C 88% 11.0 mph E17.7 kmh E 18.0 mph29.0 kmh 29.74 in1007.1 mb 0.00 in0.0 mm 0.00 in0.0 mm 0.00 in0.0 mm
06:55 AM 65.6°F18.7°C 62.0°F16.7°C 88% 16.0 mph E25.7 kmh E 16.0 mph25.7 kmh 29.74 in1007.1 mb 0.00 in0.0 mm 0.00 in0.0 mm 0.00 in0.0 mm
07:00 AM 65.7°F18.7°C 62.1°F16.7°C 88% 13.0 mph E20.9 kmh E 18.0 mph29.0 kmh 29.74 in1007.1 mb 0.00 in0.0 mm 0.00 in0.0 mm 0.00 in0.0 mm
07:05 AM 65.5°F18.6°C 61.5°F16.4°C 87% 10.0 mph E16.1 kmh E 18.0 mph29.0 kmh 29.74 in1007.1 mb 0.00 in0.0 mm 0.00 in0.0 mm 0.00 in0.0 mm
07:10 AM 65.6°F18.7°C 62.0°F16.7°C 88% 12.0 mph E19.3 kmh E 12.0 mph19.3 kmh 29.75 in1007.5 mb 0.00 in0.0 mm 0.00 in0.0 mm 0.00 in0.0 mm
07:15 AM 65.8°F18.8°C 62.2°F16.8°C 88% 11.0 mph E17.7 kmh E 14.0 mph22.5 kmh 29.76 in1007.8 mb 0.00 in0.0 mm 0.00 in0.0 mm 0.00 in0.0 mm
07:20 AM 65.6°F18.7°C 61.6°F16.4°C 87% 12.0 mph E19.3 kmh E 15.0 mph24.1 kmh 29.75 in1007.5 mb 0.00 in0.0 mm 0.00 in0.0 mm 0.00 in0.0 mm
07:25 AM 66.0°F18.9°C 62.4°F16.9°C 88% 11.0 mph E17.7 kmh E 12.0 mph19.3 kmh 29.75 in1007.5 mb 0.00 in0.0 mm 0.00 in0.0 mm 0.00 in0.0 mm
07:30 AM 65.8°F18.8°C 61.8°F16.6°C 87% 12.0 mph E19.3 kmh E 14.0 mph22.5 kmh 29.75 in1007.5 mb 0.00 in0.0 mm 0.00 in0.0 mm 0.00 in0.0 mm
07:35 AM 66.2°F19.0°C 62.6°F17.0°C 88% 12.0 mph E19.3 kmh E 16.0 mph25.7 kmh 29.75 in1007.5 mb 0.00 in0.0 mm 0.00 in0.0 mm 0.00 in0.0 mm
07:40 AM 66.0°F18.9°C 62.4°F16.9°C 88% 16.0 mph E25.7 kmh E 16.0 mph25.7 kmh 29.75 in1007.5 mb 0.00 in0.0 mm 0.00 in0.0 mm 0.00 in0.0 mm
07:45 AM 66.2°F19.0°C 62.2°F16.8°C 87% 12.0 mph E19.3 kmh E 16.0 mph25.7 kmh 29.75 in1007.5 mb 0.00 in0.0 mm 0.00 in0.0 mm 0.00 in0.0 mm
07:50 AM 66.7°F19.3°C 62.7°F17.1°C 87% 9.0 mph E14.5 kmh E 19.0 mph30.6 kmh 29.75 in1007.5 mb 0.00 in0.0 mm 0.00 in0.0 mm 0.00 in0.0 mm
07:55 AM 67.2°F19.6°C 63.2°F17.3°C 87% 17.0 mph E27.4 kmh E 17.0 mph27.4 kmh 29.75 in1007.5 mb 0.00 in0.0 mm 0.00 in0.0 mm 0.00 in0.0 mm
08:00 AM 67.2°F19.6°C 62.5°F16.9°C 85% 13.0 mph ESE20.9 kmh ESE 18.0 mph29.0 kmh 29.75 in1007.5 mb 0.00 in0.0 mm 0.00 in0.0 mm 0.00 in0.0 mm
08:05 AM 67.1°F19.5°C 62.8°F17.1°C 86% 11.0 mph E17.7 kmh E 18.0 mph29.0 kmh 29.75 in1007.5 mb 0.00 in0.0 mm 0.00 in0.0 mm 0.00 in0.0 mm
08:10 AM 67.9°F19.9°C 63.6°F17.6°C 86% 8.0 mph ESE12.9 kmh ESE 13.0 mph20.9 kmh 29.75 in1007.5 mb 0.00 in0.0 mm 0.00 in0.0 mm 0.00 in0.0 mm
08:15 AM 67.6°F19.8°C 62.9°F17.2°C 85% 11.0 mph E17.7 kmh E 14.0 mph22.5 kmh 29.75 in1007.5 mb 0.00 in0.0 mm 0.00 in0.0 mm 0.00 in0.0 mm
08:20 AM 67.9°F19.9°C 63.6°F17.6°C 86% 11.0 mph E17.7 kmh E 16.0 mph25.7 kmh 29.75 in1007.5 mb 0.00 in0.0 mm 0.00 in0.0 mm 0.00 in0.0 mm
08:25 AM 68.4°F20.2°C 63.4°F17.4°C 84% 4.0 mph ESE6.4 kmh ESE 7.0 mph11.3 kmh 29.75 in1007.5 mb 0.00 in0.0 mm 0.00 in0.0 mm 0.00 in0.0 mm
08:30 AM 69.6°F20.9°C 64.6°F18.1°C 84% 3.0 mph ESE4.8 kmh ESE 16.0 mph25.7 kmh 29.75 in1007.5 mb 0.00 in0.0 mm 0.00 in0.0 mm 0.00 in0.0 mm
08:35 AM 70.0°F21.1°C 64.3°F17.9°C 82% 4.0 mph ESE6.4 kmh ESE 17.0 mph27.4 kmh 29.75 in1007.5 mb 0.00 in0.0 mm 0.00 in0.0 mm 0.00 in0.0 mm
08:40 AM 70.1°F21.2°C 64.4°F18.0°C 82% 4.0 mph ESE6.4 kmh ESE 9.0 mph14.5 kmh 29.75 in1007.5 mb 0.00 in0.0 mm 0.00 in0.0 mm 0.00 in0.0 mm
08:45 AM 71.0°F21.7°C 64.9°F18.3°C 81% 13.0 mph E20.9 kmh E 15.0 mph24.1 kmh 29.74 in1007.1 mb 0.00 in0.0 mm 0.00 in0.0 mm 0.00 in0.0 mm
08:50 AM 70.5°F21.4°C 64.4°F18.0°C 81% 7.0 mph ESE11.3 kmh ESE 15.0 mph24.1 kmh 29.73 in1006.8 mb 0.00 in0.0 mm 0.00 in0.0 mm 0.00 in0.0 mm
08:55 AM 70.5°F21.4°C 64.8°F18.2°C 82% 11.0 mph ESE17.7 kmh ESE 11.0 mph17.7 kmh 29.74 in1007.1 mb 0.00 in0.0 mm 0.00 in0.0 mm 0.00 in0.0 mm
09:00 AM 69.2°F20.7°C 63.5°F17.5°C 82% 4.0 mph SE6.4 kmh SE 15.0 mph24.1 kmh 29.74 in1007.1 mb 0.00 in0.0 mm 0.00 in0.0 mm 0.00 in0.0 mm
09:05 AM 70.6°F21.4°C 65.2°F18.4°C 83% 9.0 mph SE14.5 kmh SE 24.0 mph38.6 kmh 29.73 in1006.8 mb 0.00 in0.0 mm 0.00 in0.0 mm 0.00 in0.0 mm
09:10 AM 70.6°F21.4°C 64.5°F18.1°C 81% 8.0 mph ESE12.9 kmh ESE 8.0 mph12.9 kmh 29.74 in1007.1 mb 0.00 in0.0 mm 0.00 in0.0 mm 0.00 in0.0 mm
09:15 AM 69.7°F20.9°C 64.7°F18.2°C 84% 10.0 mph E16.1 kmh E 19.0 mph30.6 kmh 29.73 in1006.8 mb 0.00 in0.0 mm 0.00 in0.0 mm 0.00 in0.0 mm
09:20 AM 69.1°F20.6°C 63.7°F17.6°C 83% 13.0 mph ESE20.9 kmh ESE 20.0 mph32.2 kmh 29.73 in1006.8 mb 0.00 in0.0 mm 0.00 in0.0 mm 0.00 in0.0 mm
09:25 AM 69.3°F20.7°C 63.9°F17.7°C 83% 17.0 mph ESE27.4 kmh ESE 17.0 mph27.4 kmh 29.73 in1006.8 mb 0.00 in0.0 mm 0.00 in0.0 mm 0.00 in0.0 mm
09:30 AM 69.4°F20.8°C 64.4°F18.0°C 84% 17.0 mph E27.4 kmh E 24.0 mph38.6 kmh 29.72 in1006.4 mb 0.00 in0.0 mm 0.00 in0.0 mm 0.00 in0.0 mm
09:35 AM 69.4°F20.8°C 64.4°F18.0°C 84% 17.0 mph SE27.4 kmh SE 24.0 mph38.6 kmh 29.73 in1006.8 mb 0.00 in0.0 mm 0.00 in0.0 mm 0.00 in0.0 mm
09:40 AM 69.3°F20.7°C 64.3°F17.9°C 84% 16.0 mph E25.7 kmh E 16.0 mph25.7 kmh 29.73 in1006.8 mb 0.00 in0.0 mm 0.00 in0.0 mm 0.00 in0.0 mm
09:45 AM 69.3°F20.7°C 64.6°F18.1°C 85% 8.0 mph ESE12.9 kmh ESE 19.0 mph30.6 kmh 29.73 in1006.8 mb 0.00 in0.0 mm 0.00 in0.0 mm 0.00 in0.0 mm
09:50 AM 69.9°F21.1°C 64.5°F18.1°C 83% 12.0 mph E19.3 kmh E 19.0 mph30.6 kmh 29.72 in1006.4 mb 0.00 in0.0 mm 0.00 in0.0 mm 0.00 in0.0 mm
09:55 AM 69.3°F20.7°C 64.3°F17.9°C 84% 12.0 mph E19.3 kmh E 16.0 mph25.7 kmh 29.72 in1006.4 mb 0.00 in0.0 mm 0.00 in0.0 mm 0.00 in0.0 mm
10:00 AM 69.4°F20.8°C 64.4°F18.0°C 84% 15.0 mph E24.1 kmh E 17.0 mph27.4 kmh 29.72 in1006.4 mb 0.00 in0.0 mm 0.00 in0.0 mm 0.00 in0.0 mm
10:05 AM 69.7°F20.9°C 64.7°F18.2°C 84% 8.0 mph ESE12.9 kmh ESE 23.0 mph37.0 kmh 29.73 in1006.8 mb 0.00 in0.0 mm 0.00 in0.0 mm 0.00 in0.0 mm
10:10 AM 69.5°F20.8°C 64.1°F17.8°C 83% 10.0 mph ESE16.1 kmh ESE 12.0 mph19.3 kmh 29.72 in1006.4 mb 0.00 in0.0 mm 0.00 in0.0 mm 0.00 in0.0 mm
10:15 AM 69.9°F21.1°C 64.9°F18.3°C 84% 14.0 mph ESE22.5 kmh ESE 21.0 mph33.8 kmh 29.72 in1006.4 mb 0.00 in0.0 mm 0.00 in0.0 mm 0.00 in0.0 mm
10:20 AM 69.5°F20.8°C 64.5°F18.1°C 84% 15.0 mph E24.1 kmh E 21.0 mph33.8 kmh 29.72 in1006.4 mb 0.00 in0.0 mm 0.00 in0.0 mm 0.00 in0.0 mm
10:25 AM 69.7°F20.9°C 64.7°F18.2°C 84% 18.0 mph E29.0 kmh E 20.0 mph32.2 kmh 29.72 in1006.4 mb 0.00 in0.0 mm 0.00 in0.0 mm 0.00 in0.0 mm
10:30 AM 69.8°F21.0°C 64.4°F18.0°C 83% 17.0 mph E27.4 kmh E 24.0 mph38.6 kmh 29.71 in1006.1 mb 0.00 in0.0 mm 0.00 in0.0 mm 0.00 in0.0 mm
10:35 AM 69.5°F20.8°C 64.5°F18.1°C 84% 19.0 mph E30.6 kmh E 24.0 mph38.6 kmh 29.72 in1006.4 mb 0.00 in0.0 mm 0.00 in0.0 mm 0.00 in0.0 mm
10:40 AM 69.1°F20.6°C 64.1°F17.8°C 84% 9.0 mph E14.5 kmh E 14.0 mph22.5 kmh 29.72 in1006.4 mb 0.00 in0.0 mm 0.00 in0.0 mm 0.00 in0.0 mm
10:45 AM 69.8°F21.0°C 64.8°F18.2°C 84% 11.0 mph ESE17.7 kmh ESE 24.0 mph38.6 kmh 29.72 in1006.4 mb 0.00 in0.0 mm 0.00 in0.0 mm 0.00 in0.0 mm
10:50 AM 69.7°F20.9°C 65.0°F18.3°C 85% 13.0 mph ESE20.9 kmh ESE 24.0 mph38.6 kmh 29.72 in1006.4 mb 0.00 in0.0 mm 0.00 in0.0 mm 0.00 in0.0 mm
10:55 AM 69.1°F20.6°C 64.1°F17.8°C 84% 15.0 mph E24.1 kmh E 15.0 mph24.1 kmh 29.72 in1006.4 mb 0.00 in0.0 mm 0.00 in0.0 mm 0.00 in0.0 mm
11:00 AM 69.8°F21.0°C 64.8°F18.2°C 84% 10.0 mph ESE16.1 kmh ESE 20.0 mph32.2 kmh 29.72 in1006.4 mb 0.00 in0.0 mm 0.00 in0.0 mm 0.00 in0.0 mm
11:05 AM 69.3°F20.7°C 64.6°F18.1°C 85% 11.0 mph ENE17.7 kmh ENE 20.0 mph32.2 kmh 29.72 in1006.4 mb 0.00 in0.0 mm 0.00 in0.0 mm 0.00 in0.0 mm
11:10 AM 68.7°F20.4°C 64.7°F18.2°C 87% 12.0 mph ESE19.3 kmh ESE 14.0 mph22.5 kmh 29.72 in1006.4 mb 0.00 in0.0 mm 0.00 in0.0 mm 0.00 in0.0 mm
11:15 AM 69.6°F20.9°C 64.2°F17.9°C 83% 15.0 mph E24.1 kmh E 19.0 mph30.6 kmh 29.71 in1006.1 mb 0.00 in0.0 mm 0.00 in0.0 mm 0.00 in0.0 mm
11:20 AM 70.3°F21.3°C 65.2°F18.4°C 84% 14.0 mph E22.5 kmh E 19.0 mph30.6 kmh 29.71 in1006.1 mb 0.00 in0.0 mm 0.00 in0.0 mm 0.00 in0.0 mm
11:25 AM 70.1°F21.2°C 65.1°F18.4°C 84% 17.0 mph E27.4 kmh E 17.0 mph27.4 kmh 29.72 in1006.4 mb 0.00 in0.0 mm 0.00 in0.0 mm 0.00 in0.0 mm
11:30 AM 70.1°F21.2°C 65.1°F18.4°C 84% 18.0 mph ESE29.0 kmh ESE 24.0 mph38.6 kmh 29.71 in1006.1 mb 0.00 in0.0 mm 0.00 in0.0 mm 0.00 in0.0 mm
11:35 AM 70.1°F21.2°C 65.4°F18.6°C 85% 14.0 mph ESE22.5 kmh ESE 24.0 mph38.6 kmh 29.71 in1006.1 mb 0.00 in0.0 mm 0.00 in0.0 mm 0.00 in0.0 mm
11:40 AM 67.2°F19.6°C 63.2°F17.3°C 87% 11.0 mph E17.7 kmh E 14.0 mph22.5 kmh 29.70 in1005.8 mb 0.00 in0.0 mm 0.00 in0.0 mm 0.00 in0.0 mm
11:45 AM 66.9°F19.4°C 63.2°F17.3°C 88% 11.0 mph E17.7 kmh E 16.0 mph25.7 kmh 29.70 in1005.8 mb 0.00 in0.0 mm 0.00 in0.0 mm 0.00 in0.0 mm
11:50 AM 66.6°F19.2°C 62.6°F17.0°C 87% 15.0 mph ENE24.1 kmh ENE 18.0 mph29.0 kmh 29.70 in1005.8 mb 0.00 in0.0 mm 0.00 in0.0 mm 0.00 in0.0 mm
11:55 AM 65.4°F18.6°C 61.8°F16.6°C 88% 16.0 mph NE25.7 kmh NE 16.0 mph25.7 kmh 29.70 in1005.8 mb 0.00 in0.0 mm 0.00 in0.0 mm 0.00 in0.0 mm
12:00 PM 65.2°F18.4°C 62.2°F16.8°C 90% 14.0 mph ENE22.5 kmh ENE 21.0 mph33.8 kmh 29.69 in1005.4 mb 0.00 in0.0 mm 0.00 in0.0 mm 0.00 in0.0 mm
12:05 PM 65.0°F18.3°C 61.7°F16.5°C 89% 19.0 mph NE30.6 kmh NE 21.0 mph33.8 kmh 29.69 in1005.4 mb 0.00 in0.0 mm 0.00 in0.0 mm 0.00 in0.0 mm
12:10 PM 65.1°F18.4°C 62.1°F16.7°C 90% 16.0 mph ENE25.7 kmh ENE 18.0 mph29.0 kmh 29.69 in1005.4 mb 0.00 in0.0 mm 0.00 in0.0 mm 0.00 in0.0 mm
12:15 PM 64.8°F18.2°C 61.8°F16.6°C 90% 14.0 mph ENE22.5 kmh ENE 19.0 mph30.6 kmh 29.69 in1005.4 mb 0.00 in0.0 mm 0.00 in0.0 mm 0.00 in0.0 mm
12:20 PM 64.7°F18.2°C 61.7°F16.5°C 90% 17.0 mph ENE27.4 kmh ENE 20.0 mph32.2 kmh 29.69 in1005.4 mb 0.00 in0.0 mm 0.00 in0.0 mm 0.00 in0.0 mm
12:25 PM 64.6°F18.1°C 61.6°F16.4°C 90% 15.0 mph ENE24.1 kmh ENE 15.0 mph24.1 kmh 29.69 in1005.4 mb 0.00 in0.0 mm 0.00 in0.0 mm 0.00 in0.0 mm
12:30 PM 64.4°F18.0°C 61.4°F16.3°C 90% 16.0 mph ENE25.7 kmh ENE 21.0 mph33.8 kmh 29.69 in1005.4 mb 0.00 in0.0 mm 0.00 in0.0 mm 0.00 in0.0 mm
12:35 PM 64.3°F17.9°C 61.3°F16.3°C 90% 18.0 mph NE29.0 kmh NE 21.0 mph33.8 kmh 29.68 in1005.1 mb 0.00 in0.0 mm 0.00 in0.0 mm 0.00 in0.0 mm
12:40 PM 64.3°F17.9°C 61.6°F16.4°C 91% 16.0 mph ENE25.7 kmh ENE 17.0 mph27.4 kmh 29.69 in1005.4 mb 0.00 in0.0 mm 0.00 in0.0 mm 0.00 in0.0 mm
12:45 PM 64.1°F17.8°C 61.4°F16.3°C 91% 15.0 mph NE24.1 kmh NE 17.0 mph27.4 kmh 29.68 in1005.1 mb 0.00 in0.0 mm 0.00 in0.0 mm 0.00 in0.0 mm
12:50 PM 63.9°F17.7°C 61.2°F16.2°C 91% 14.0 mph NE22.5 kmh NE 17.0 mph27.4 kmh 29.68 in1005.1 mb 0.00 in0.0 mm 0.00 in0.0 mm 0.00 in0.0 mm
12:55 PM 63.8°F17.7°C 61.1°F16.2°C 91% 13.0 mph NE20.9 kmh NE 13.0 mph20.9 kmh 29.67 in1004.7 mb 0.00 in0.0 mm 0.00 in0.0 mm 0.00 in0.0 mm
01:00 PM 63.9°F17.7°C 61.2°F16.2°C 91% 14.0 mph NE22.5 kmh NE 16.0 mph25.7 kmh 29.67 in1004.7 mb 0.00 in0.0 mm 0.00 in0.0 mm 0.00 in0.0 mm
01:05 PM 63.7°F17.6°C 61.0°F16.1°C 91% 17.0 mph ENE27.4 kmh ENE 18.0 mph29.0 kmh 29.67 in1004.7 mb 0.00 in0.0 mm 0.00 in0.0 mm 0.00 in0.0 mm
01:10 PM 63.5°F17.5°C 60.8°F16.0°C 91% 15.0 mph NE24.1 kmh NE 16.0 mph25.7 kmh 29.66 in1004.4 mb 0.00 in0.0 mm 0.00 in0.0 mm 0.00 in0.0 mm
01:15 PM 63.4°F17.4°C 61.0°F16.1°C 92% 12.0 mph NE19.3 kmh NE 18.0 mph29.0 kmh 29.66 in1004.4 mb 0.00 in0.0 mm 0.00 in0.0 mm 0.00 in0.0 mm
01:20 PM 63.4°F17.4°C 61.0°F16.1°C 92% 15.0 mph NE24.1 kmh NE 18.0 mph29.0 kmh 29.66 in1004.4 mb 0.00 in0.0 mm 0.00 in0.0 mm 0.00 in0.0 mm
01:25 PM 63.4°F17.4°C 61.0°F16.1°C 92% 15.0 mph NE24.1 kmh NE 15.0 mph24.1 kmh 29.66 in1004.4 mb 0.00 in0.0 mm 0.00 in0.0 mm 0.00 in0.0 mm
01:30 PM 63.5°F17.5°C 61.4°F16.3°C 93% 13.0 mph ENE20.9 kmh ENE 16.0 mph25.7 kmh 29.65 in1004.1 mb 0.00 in0.0 mm 0.00 in0.0 mm 0.00 in0.0 mm
01:35 PM 63.8°F17.7°C 61.7°F16.5°C 93% 14.0 mph ENE22.5 kmh ENE 16.0 mph25.7 kmh 29.65 in1004.1 mb 0.00 in0.0 mm 0.00 in0.0 mm 0.00 in0.0 mm
01:40 PM 64.0°F17.8°C 61.9°F16.6°C 93% 14.0 mph ENE22.5 kmh ENE 15.0 mph24.1 kmh 29.65 in1004.1 mb 0.00 in0.0 mm 0.00 in0.0 mm 0.00 in0.0 mm
01:45 PM 64.0°F17.8°C 61.6°F16.4°C 92% 12.0 mph ENE19.3 kmh ENE 17.0 mph27.4 kmh 29.65 in1004.1 mb 0.00 in0.0 mm 0.00 in0.0 mm 0.00 in0.0 mm
01:50 PM 64.1°F17.8°C 61.7°F16.5°C 92% 16.0 mph ENE25.7 kmh ENE 18.0 mph29.0 kmh 29.66 in1004.4 mb 0.00 in0.0 mm 0.00 in0.0 mm 0.00 in0.0 mm
01:55 PM 64.1°F17.8°C 61.7°F16.5°C 92% 14.0 mph ENE22.5 kmh ENE 15.0 mph24.1 kmh 29.65 in1004.1 mb 0.00 in0.0 mm 0.00 in0.0 mm 0.00 in0.0 mm
02:00 PM 64.4°F18.0°C 62.3°F16.8°C 93% 13.0 mph ENE20.9 kmh ENE 15.0 mph24.1 kmh 29.65 in1004.1 mb 0.01 in0.3 mm 0.01 in0.3 mm 0.01 in0.3 mm
02:05 PM 64.8°F18.2°C 62.7°F17.1°C 93% 9.0 mph E14.5 kmh E 15.0 mph24.1 kmh 29.64 in1003.7 mb 0.01 in0.3 mm 0.00 in0.0 mm 0.01 in0.3 mm
02:10 PM 64.5°F18.1°C 62.1°F16.7°C 92% 13.0 mph ENE20.9 kmh ENE 13.0 mph20.9 kmh 29.64 in1003.7 mb 0.01 in0.3 mm 0.00 in0.0 mm 0.01 in0.3 mm
02:15 PM 64.1°F17.8°C 61.7°F16.5°C 92% 15.0 mph NE24.1 kmh NE 16.0 mph25.7 kmh 29.64 in1003.7 mb 0.01 in0.3 mm 0.00 in0.0 mm 0.01 in0.3 mm
02:20 PM 63.9°F17.7°C 61.5°F16.4°C 92% 16.0 mph NE25.7 kmh NE 18.0 mph29.0 kmh 29.63 in1003.4 mb 0.01 in0.3 mm 0.00 in0.0 mm 0.01 in0.3 mm
02:25 PM 63.9°F17.7°C 61.5°F16.4°C 92% 15.0 mph ENE24.1 kmh ENE 15.0 mph24.1 kmh 29.63 in1003.4 mb 0.01 in0.3 mm 0.00 in0.0 mm 0.01 in0.3 mm
02:30 PM 64.1°F17.8°C 61.7°F16.5°C 92% 15.0 mph NE24.1 kmh NE 18.0 mph29.0 kmh 29.63 in1003.4 mb 0.01 in0.3 mm 0.00 in0.0 mm 0.01 in0.3 mm
02:35 PM 64.1°F17.8°C 61.7°F16.5°C 92% 14.0 mph NE22.5 kmh NE 19.0 mph30.6 kmh 29.62 in1003.0 mb 0.01 in0.3 mm 0.00 in0.0 mm 0.01 in0.3 mm
02:40 PM 64.3°F17.9°C 61.9°F16.6°C 92% 16.0 mph NE25.7 kmh NE 16.0 mph25.7 kmh 29.62 in1003.0 mb 0.01 in0.3 mm 0.00 in0.0 mm 0.01 in0.3 mm
02:45 PM 64.6°F18.1°C 62.2°F16.8°C 92% 14.0 mph ENE22.5 kmh ENE 18.0 mph29.0 kmh 29.62 in1003.0 mb 0.01 in0.3 mm 0.00 in0.0 mm 0.01 in0.3 mm
02:50 PM 64.5°F18.1°C 61.8°F16.6°C 91% 14.0 mph NE22.5 kmh NE 18.0 mph29.0 kmh 29.61 in1002.7 mb 0.01 in0.3 mm 0.00 in0.0 mm 0.01 in0.3 mm
02:55 PM 64.4°F18.0°C 61.7°F16.5°C 91% 15.0 mph NE24.1 kmh NE 15.0 mph24.1 kmh 29.61 in1002.7 mb 0.01 in0.3 mm 0.00 in0.0 mm 0.01 in0.3 mm
03:00 PM 64.4°F18.0°C 61.7°F16.5°C 91% 17.0 mph ENE27.4 kmh ENE 19.0 mph30.6 kmh 29.62 in1003.0 mb 0.01 in0.3 mm 0.00 in0.0 mm 0.01 in0.3 mm
03:05 PM 64.3°F17.9°C 61.6°F16.4°C 91% 15.0 mph NE24.1 kmh NE 20.0 mph32.2 kmh 29.61 in1002.7 mb 0.01 in0.3 mm 0.00 in0.0 mm 0.01 in0.3 mm
03:10 PM 64.1°F17.8°C 61.4°F16.3°C 91% 15.0 mph ENE24.1 kmh ENE 15.0 mph24.1 kmh 29.61 in1002.7 mb 0.00 in0.0 mm 0.00 in0.0 mm 0.01 in0.3 mm
03:15 PM 63.9°F17.7°C 61.2°F16.2°C 91% 11.0 mph NE17.7 kmh NE 16.0 mph25.7 kmh 29.61 in1002.7 mb 0.00 in0.0 mm 0.00 in0.0 mm 0.01 in0.3 mm
03:20 PM 63.8°F17.7°C 61.4°F16.3°C 92% 12.0 mph ENE19.3 kmh ENE 16.0 mph25.7 kmh 29.61 in1002.7 mb 0.00 in0.0 mm 0.00 in0.0 mm 0.01 in0.3 mm
03:25 PM 63.7°F17.6°C 61.3°F16.3°C 92% 13.0 mph NE20.9 kmh NE 14.0 mph22.5 kmh 29.61 in1002.7 mb 0.00 in0.0 mm 0.00 in0.0 mm 0.01 in0.3 mm
03:30 PM 63.6°F17.6°C 61.2°F16.2°C 92% 16.0 mph NE25.7 kmh NE 16.0 mph25.7 kmh 29.60 in1002.4 mb 0.00 in0.0 mm 0.00 in0.0 mm 0.01 in0.3 mm
03:35 PM 63.4°F17.4°C 61.0°F16.1°C 92% 12.0 mph ENE19.3 kmh ENE 17.0 mph27.4 kmh 29.61 in1002.7 mb 0.01 in0.3 mm 0.12 in3.0 mm 0.02 in0.5 mm
03:40 PM 63.2°F17.3°C 61.2°F16.2°C 93% 16.0 mph E25.7 kmh E 17.0 mph27.4 kmh 29.61 in1002.7 mb 0.01 in0.3 mm 0.00 in0.0 mm 0.02 in0.5 mm
03:45 PM 64.3°F17.9°C 62.5°F16.9°C 94% 13.0 mph E20.9 kmh E 18.0 mph29.0 kmh 29.60 in1002.4 mb 0.01 in0.3 mm 0.00 in0.0 mm 0.02 in0.5 mm
03:50 PM 66.6°F19.2°C 65.1°F18.4°C 95% 18.0 mph E29.0 kmh E 22.0 mph35.4 kmh 29.59 in1002.0 mb 0.02 in0.5 mm 0.12 in3.0 mm 0.03 in0.8 mm
03:55 PM 67.3°F19.6°C 65.2°F18.4°C 93% 17.0 mph E27.4 kmh E 19.0 mph30.6 kmh 29.60 in1002.4 mb 0.02 in0.5 mm 0.00 in0.0 mm 0.03 in0.8 mm
04:00 PM 66.4°F19.1°C 64.0°F17.8°C 92% 14.0 mph ENE22.5 kmh ENE 21.0 mph33.8 kmh 29.59 in1002.0 mb 0.02 in0.5 mm 0.00 in0.0 mm 0.03 in0.8 mm
04:05 PM 66.0°F18.9°C 63.9°F17.7°C 93% 14.0 mph ENE22.5 kmh ENE 21.0 mph33.8 kmh 29.59 in1002.0 mb 0.02 in0.5 mm 0.00 in0.0 mm 0.03 in0.8 mm
04:10 PM 66.5°F19.2°C 64.4°F18.0°C 93% 18.0 mph E29.0 kmh E 18.0 mph29.0 kmh 29.59 in1002.0 mb 0.02 in0.5 mm 0.00 in0.0 mm 0.03 in0.8 mm
04:15 PM 67.3°F19.6°C 64.9°F18.3°C 92% 16.0 mph E25.7 kmh E 22.0 mph35.4 kmh 29.59 in1002.0 mb 0.03 in0.8 mm 0.12 in3.0 mm 0.04 in1.0 mm
04:20 PM 65.7°F18.7°C 62.7°F17.1°C 90% 17.0 mph ENE27.4 kmh ENE 22.0 mph35.4 kmh 29.59 in1002.0 mb 0.03 in0.8 mm 0.00 in0.0 mm 0.04 in1.0 mm
04:25 PM 64.3°F17.9°C 61.9°F16.6°C 92% 19.0 mph NE30.6 kmh NE 19.0 mph30.6 kmh 29.59 in1002.0 mb 0.03 in0.8 mm 0.00 in0.0 mm 0.04 in1.0 mm
04:30 PM 63.8°F17.7°C 61.4°F16.3°C 92% 17.0 mph ENE27.4 kmh ENE 23.0 mph37.0 kmh 29.59 in1002.0 mb 0.03 in0.8 mm 0.00 in0.0 mm 0.04 in1.0 mm
04:35 PM 63.5°F17.5°C 61.1°F16.2°C 92% 21.0 mph ENE33.8 kmh ENE 23.0 mph37.0 kmh 29.59 in1002.0 mb 0.03 in0.8 mm 0.00 in0.0 mm 0.04 in1.0 mm
04:40 PM 63.1°F17.3°C 60.7°F15.9°C 92% 18.0 mph ENE29.0 kmh ENE 19.0 mph30.6 kmh 29.59 in1002.0 mb 0.02 in0.5 mm 0.00 in0.0 mm 0.04 in1.0 mm
04:45 PM 62.8°F17.1°C 60.8°F16.0°C 93% 15.0 mph ENE24.1 kmh ENE 19.0 mph30.6 kmh 29.59 in1002.0 mb 0.02 in0.5 mm 0.00 in0.0 mm 0.04 in1.0 mm
04:50 PM 62.8°F17.1°C 60.8°F16.0°C 93% 15.0 mph ENE24.1 kmh ENE 19.0 mph30.6 kmh 29.59 in1002.0 mb 0.02 in0.5 mm 0.00 in0.0 mm 0.04 in1.0 mm
04:55 PM 63.1°F17.3°C 61.4°F16.3°C 94% 15.0 mph E24.1 kmh E 15.0 mph24.1 kmh 29.60 in1002.4 mb 0.01 in0.3 mm 0.00 in0.0 mm 0.04 in1.0 mm
05:00 PM 64.1°F17.8°C 62.6°F17.0°C 95% 13.0 mph E20.9 kmh E 15.0 mph24.1 kmh 29.59 in1002.0 mb 0.01 in0.3 mm 0.00 in0.0 mm 0.04 in1.0 mm
05:05 PM 64.3°F17.9°C 62.2°F16.8°C 93% 14.0 mph ENE22.5 kmh ENE 15.0 mph24.1 kmh 29.59 in1002.0 mb 0.01 in0.3 mm 0.00 in0.0 mm 0.04 in1.0 mm
05:10 PM 64.1°F17.8°C 62.3°F16.8°C 94% 13.0 mph ENE20.9 kmh ENE 14.0 mph22.5 kmh 29.59 in1002.0 mb 0.01 in0.3 mm 0.00 in0.0 mm 0.04 in1.0 mm
05:15 PM 64.2°F17.9°C 62.4°F16.9°C 94% 16.0 mph E25.7 kmh E 20.0 mph32.2 kmh 29.59 in1002.0 mb 0.02 in0.5 mm 0.12 in3.0 mm 0.05 in1.3 mm
05:20 PM 65.2°F18.4°C 63.7°F17.6°C 95% 19.0 mph E30.6 kmh E 23.0 mph37.0 kmh 29.59 in1002.0 mb 0.02 in0.5 mm 0.00 in0.0 mm 0.05 in1.3 mm
05:25 PM 65.4°F18.6°C 63.6°F17.6°C 94% 15.0 mph E24.1 kmh E 16.0 mph25.7 kmh 29.59 in1002.0 mb 0.01 in0.3 mm 0.00 in0.0 mm 0.05 in1.3 mm
05:30 PM 65.1°F18.4°C 62.7°F17.1°C 92% 16.0 mph E25.7 kmh E 21.0 mph33.8 kmh 29.58 in1001.7 mb 0.01 in0.3 mm 0.00 in0.0 mm 0.05 in1.3 mm
05:35 PM 65.5°F18.6°C 63.7°F17.6°C 94% 18.0 mph E29.0 kmh E 21.0 mph33.8 kmh 29.58 in1001.7 mb 0.01 in0.3 mm 0.00 in0.0 mm 0.05 in1.3 mm
05:40 PM 65.8°F18.8°C 63.7°F17.6°C 93% 15.0 mph E24.1 kmh E 17.0 mph27.4 kmh 29.59 in1002.0 mb 0.01 in0.3 mm 0.00 in0.0 mm 0.05 in1.3 mm
05:45 PM 64.5°F18.1°C 61.8°F16.6°C 91% 15.0 mph ENE24.1 kmh ENE 17.0 mph27.4 kmh 29.58 in1001.7 mb 0.01 in0.3 mm 0.00 in0.0 mm 0.05 in1.3 mm
05:50 PM 64.0°F17.8°C 61.9°F16.6°C 93% 13.0 mph ENE20.9 kmh ENE 17.0 mph27.4 kmh 29.59 in1002.0 mb 0.01 in0.3 mm 0.00 in0.0 mm 0.05 in1.3 mm
05:55 PM 64.4°F18.0°C 62.6°F17.0°C 94% 14.0 mph ENE22.5 kmh ENE 14.0 mph22.5 kmh 29.58 in1001.7 mb 0.01 in0.3 mm 0.00 in0.0 mm 0.05 in1.3 mm
06:00 PM 64.5°F18.1°C 62.4°F16.9°C 93% 13.0 mph ENE20.9 kmh ENE 16.0 mph25.7 kmh 29.58 in1001.7 mb 0.01 in0.3 mm 0.00 in0.0 mm 0.05 in1.3 mm
06:05 PM 64.6°F18.1°C 62.8°F17.1°C 94% 12.0 mph ENE19.3 kmh ENE 17.0 mph27.4 kmh 29.58 in1001.7 mb 0.01 in0.3 mm 0.00 in0.0 mm 0.05 in1.3 mm
06:10 PM 64.4°F18.0°C 62.6°F17.0°C 94% 12.0 mph ENE19.3 kmh ENE 12.0 mph19.3 kmh 29.58 in1001.7 mb 0.01 in0.3 mm 0.00 in0.0 mm 0.05 in1.3 mm
06:15 PM 64.7°F18.2°C 62.9°F17.2°C 94% 12.0 mph E19.3 kmh E 15.0 mph24.1 kmh 29.58 in1001.7 mb 0.01 in0.3 mm 0.00 in0.0 mm 0.05 in1.3 mm
06:20 PM 65.1°F18.4°C 63.3°F17.4°C 94% 13.0 mph ENE20.9 kmh ENE 18.0 mph29.0 kmh 29.58 in1001.7 mb 0.01 in0.3 mm 0.00 in0.0 mm 0.05 in1.3 mm
06:25 PM 64.8°F18.2°C 63.0°F17.2°C 94% 12.0 mph ENE19.3 kmh ENE 13.0 mph20.9 kmh 29.58 in1001.7 mb 0.00 in0.0 mm 0.00 in0.0 mm 0.05 in1.3 mm
06:30 PM 64.4°F18.0°C 62.6°F17.0°C 94% 16.0 mph ENE25.7 kmh ENE 17.0 mph27.4 kmh 29.57 in1001.4 mb 0.00 in0.0 mm 0.00 in0.0 mm 0.05 in1.3 mm
06:35 PM 64.1°F17.8°C 62.3°F16.8°C 94% 16.0 mph ENE25.7 kmh ENE 17.0 mph27.4 kmh 29.58 in1001.7 mb 0.00 in0.0 mm 0.00 in0.0 mm 0.05 in1.3 mm
06:40 PM 64.5°F18.1°C 63.0°F17.2°C 95% 18.0 mph E29.0 kmh E 19.0 mph30.6 kmh 29.58 in1001.7 mb 0.00 in0.0 mm 0.00 in0.0 mm 0.05 in1.3 mm
06:45 PM 65.4°F18.6°C 63.9°F17.7°C 95% 17.0 mph E27.4 kmh E 21.0 mph33.8 kmh 29.58 in1001.7 mb 0.00 in0.0 mm 0.00 in0.0 mm 0.05 in1.3 mm
06:50 PM 66.0°F18.9°C 64.5°F18.1°C 95% 17.0 mph E27.4 kmh E 21.0 mph33.8 kmh 29.57 in1001.4 mb 0.00 in0.0 mm 0.00 in0.0 mm 0.05 in1.3 mm
06:55 PM 66.1°F18.9°C 64.3°F17.9°C 94% 14.0 mph E22.5 kmh E 15.0 mph24.1 kmh 29.57 in1001.4 mb 0.00 in0.0 mm 0.00 in0.0 mm 0.05 in1.3 mm
07:00 PM 65.9°F18.8°C 64.1°F17.8°C 94% 18.0 mph E29.0 kmh E 19.0 mph30.6 kmh 29.57 in1001.4 mb 0.00 in0.0 mm 0.00 in0.0 mm 0.05 in1.3 mm
07:05 PM 65.8°F18.8°C 64.0°F17.8°C 94% 17.0 mph E27.4 kmh E 21.0 mph33.8 kmh 29.57 in1001.4 mb 0.00 in0.0 mm 0.00 in0.0 mm 0.05 in1.3 mm
07:10 PM 66.0°F18.9°C 64.2°F17.9°C 94% 16.0 mph E25.7 kmh E 17.0 mph27.4 kmh 29.56 in1001.0 mb 0.00 in0.0 mm 0.00 in0.0 mm 0.05 in1.3 mm
07:15 PM 66.1°F18.9°C 64.3°F17.9°C 94% 15.0 mph E24.1 kmh E 19.0 mph30.6 kmh 29.57 in1001.4 mb 0.00 in0.0 mm 0.00 in0.0 mm 0.05 in1.3 mm
07:20 PM 65.8°F18.8°C 63.4°F17.4°C 92% 15.0 mph ENE24.1 kmh ENE 19.0 mph30.6 kmh 29.56 in1001.0 mb 0.00 in0.0 mm 0.00 in0.0 mm 0.05 in1.3 mm
07:25 PM 64.6°F18.1°C 62.5°F16.9°C 93% 16.0 mph ENE25.7 kmh ENE 17.0 mph27.4 kmh 29.57 in1001.4 mb 0.00 in0.0 mm 0.00 in0.0 mm 0.05 in1.3 mm
07:30 PM 64.1°F17.8°C 62.0°F16.7°C 93% 16.0 mph ENE25.7 kmh ENE 25.0 mph40.2 kmh 29.57 in1001.4 mb 0.01 in0.3 mm 0.12 in3.0 mm 0.06 in1.5 mm
07:35 PM 64.4°F18.0°C 62.6°F17.0°C 94% 18.0 mph E29.0 kmh E 25.0 mph40.2 kmh 29.57 in1001.4 mb 0.01 in0.3 mm 0.00 in0.0 mm 0.06 in1.5 mm
07:40 PM 65.1°F18.4°C 63.6°F17.6°C 95% 14.0 mph E22.5 kmh E 14.0 mph22.5 kmh 29.58 in1001.7 mb 0.01 in0.3 mm 0.00 in0.0 mm 0.06 in1.5 mm
07:45 PM 65.8°F18.8°C 64.0°F17.8°C 94% 15.0 mph E24.1 kmh E 20.0 mph32.2 kmh 29.58 in1001.7 mb 0.01 in0.3 mm 0.00 in0.0 mm 0.06 in1.5 mm
07:50 PM 66.0°F18.9°C 64.2°F17.9°C 94% 14.0 mph E22.5 kmh E 20.0 mph32.2 kmh 29.58 in1001.7 mb 0.01 in0.3 mm 0.00 in0.0 mm 0.06 in1.5 mm
07:55 PM 66.0°F18.9°C 64.2°F17.9°C 94% 13.0 mph ESE20.9 kmh ESE 13.0 mph20.9 kmh 29.58 in1001.7 mb 0.01 in0.3 mm 0.00 in0.0 mm 0.06 in1.5 mm
08:00 PM 65.9°F18.8°C 64.1°F17.8°C 94% 16.0 mph E25.7 kmh E 18.0 mph29.0 kmh 29.58 in1001.7 mb 0.01 in0.3 mm 0.00 in0.0 mm 0.06 in1.5 mm
08:05 PM 66.0°F18.9°C 64.2°F17.9°C 94% 25.0 mph E40.2 kmh E 26.0 mph41.8 kmh 29.56 in1001.0 mb 0.01 in0.3 mm 0.00 in0.0 mm 0.06 in1.5 mm
08:10 PM 66.0°F18.9°C 64.5°F18.1°C 95% 22.0 mph E35.4 kmh E 22.0 mph35.4 kmh 29.56 in1001.0 mb 0.01 in0.3 mm 0.00 in0.0 mm 0.06 in1.5 mm
08:15 PM 65.9°F18.8°C 64.4°F18.0°C 95% 19.0 mph E30.6 kmh E 24.0 mph38.6 kmh 29.56 in1001.0 mb 0.01 in0.3 mm 0.00 in0.0 mm 0.06 in1.5 mm
08:20 PM 65.5°F18.6°C 63.7°F17.6°C 94% 16.0 mph E25.7 kmh E 24.0 mph38.6 kmh 29.57 in1001.4 mb 0.01 in0.3 mm 0.00 in0.0 mm 0.06 in1.5 mm
08:25 PM 65.2°F18.4°C 63.4°F17.4°C 94% 17.0 mph E27.4 kmh E 17.0 mph27.4 kmh 29.57 in1001.4 mb 0.01 in0.3 mm 0.00 in0.0 mm 0.06 in1.5 mm
08:30 PM 65.0°F18.3°C 63.2°F17.3°C 94% 11.0 mph E17.7 kmh E 17.0 mph27.4 kmh 29.57 in1001.4 mb 0.01 in0.3 mm 0.00 in0.0 mm 0.06 in1.5 mm
08:35 PM 64.7°F18.2°C 62.9°F17.2°C 94% 10.0 mph E16.1 kmh E 17.0 mph27.4 kmh 29.57 in1001.4 mb 0.01 in0.3 mm 0.00 in0.0 mm 0.06 in1.5 mm
08:40 PM 64.3°F17.9°C 62.5°F16.9°C 94% 10.0 mph E16.1 kmh E 10.0 mph16.1 kmh 29.57 in1001.4 mb 0.00 in0.0 mm 0.00 in0.0 mm 0.06 in1.5 mm
08:45 PM 64.2°F17.9°C 62.7°F17.1°C 95% 13.0 mph E20.9 kmh E 14.0 mph22.5 kmh 29.58 in1001.7 mb 0.00 in0.0 mm 0.00 in0.0 mm 0.06 in1.5 mm
08:50 PM 64.7°F18.2°C 63.2°F17.3°C 95% 13.0 mph ESE20.9 kmh ESE 16.0 mph25.7 kmh 29.58 in1001.7 mb 0.00 in0.0 mm 0.00 in0.0 mm 0.06 in1.5 mm
08:55 PM 65.0°F18.3°C 63.5°F17.5°C 95% 16.0 mph ESE25.7 kmh ESE 18.0 mph29.0 kmh 29.59 in1002.0 mb 0.00 in0.0 mm 0.00 in0.0 mm 0.06 in1.5 mm
09:00 PM 65.1°F18.4°C 63.3°F17.4°C 94% 18.0 mph ESE29.0 kmh ESE 19.0 mph30.6 kmh 29.59 in1002.0 mb 0.00 in0.0 mm 0.00 in0.0 mm 0.06 in1.5 mm
09:05 PM 65.4°F18.6°C 63.6°F17.6°C 94% 17.0 mph ESE27.4 kmh ESE 20.0 mph32.2 kmh 29.59 in1002.0 mb 0.00 in0.0 mm 0.00 in0.0 mm 0.06 in1.5 mm
09:10 PM 65.4°F18.6°C 63.3°F17.4°C 93% 15.0 mph E24.1 kmh E 15.0 mph24.1 kmh 29.59 in1002.0 mb 0.00 in0.0 mm 0.00 in0.0 mm 0.06 in1.5 mm
09:15 PM 65.4°F18.6°C 63.3°F17.4°C 93% 9.0 mph ESE14.5 kmh ESE 19.0 mph30.6 kmh 29.58 in1001.7 mb 0.00 in0.0 mm 0.00 in0.0 mm 0.06 in1.5 mm
09:20 PM 65.3°F18.5°C 63.2°F17.3°C 93% 4.0 mph SE6.4 kmh SE 19.0 mph30.6 kmh 29.58 in1001.7 mb 0.00 in0.0 mm 0.00 in0.0 mm 0.06 in1.5 mm
09:25 PM 65.3°F18.5°C 63.2°F17.3°C 93% 7.0 mph ESE11.3 kmh ESE 9.0 mph14.5 kmh 29.59 in1002.0 mb 0.00 in0.0 mm 0.00 in0.0 mm 0.06 in1.5 mm
09:30 PM 65.2°F18.4°C 63.1°F17.3°C 93% 6.0 mph ESE9.7 kmh ESE 16.0 mph25.7 kmh 29.59 in1002.0 mb 0.00 in0.0 mm 0.00 in0.0 mm 0.06 in1.5 mm
09:35 PM 65.0°F18.3°C 62.9°F17.2°C 93% 7.0 mph ESE11.3 kmh ESE 16.0 mph25.7 kmh 29.58 in1001.7 mb 0.00 in0.0 mm 0.00 in0.0 mm 0.06 in1.5 mm
09:40 PM 64.8°F18.2°C 62.7°F17.1°C 93% 13.0 mph ESE20.9 kmh ESE 13.0 mph20.9 kmh 29.58 in1001.7 mb 0.00 in0.0 mm 0.00 in0.0 mm 0.06 in1.5 mm
09:45 PM 64.6°F18.1°C 62.5°F16.9°C 93% 14.0 mph E22.5 kmh E 14.0 mph22.5 kmh 29.57 in1001.4 mb 0.00 in0.0 mm 0.00 in0.0 mm 0.06 in1.5 mm
09:50 PM 64.5°F18.1°C 62.4°F16.9°C 93% 10.0 mph E16.1 kmh E 14.0 mph22.5 kmh 29.57 in1001.4 mb 0.00 in0.0 mm 0.00 in0.0 mm 0.06 in1.5 mm
09:55 PM 64.5°F18.1°C 62.4°F16.9°C 93% 10.0 mph E16.1 kmh E 10.0 mph16.1 kmh 29.57 in1001.4 mb 0.01 in0.3 mm 0.12 in3.0 mm 0.07 in1.8 mm
10:00 PM 64.4°F18.0°C 62.3°F16.8°C 93% 11.0 mph E17.7 kmh E 12.0 mph19.3 kmh 29.57 in1001.4 mb 0.01 in0.3 mm 0.00 in0.0 mm 0.07 in1.8 mm
10:05 PM 64.2°F17.9°C 62.1°F16.7°C 93% 10.0 mph E16.1 kmh E 14.0 mph22.5 kmh 29.57 in1001.4 mb 0.01 in0.3 mm 0.00 in0.0 mm 0.07 in1.8 mm
10:10 PM 64.2°F17.9°C 62.1°F16.7°C 93% 10.0 mph E16.1 kmh E 10.0 mph16.1 kmh 29.57 in1001.4 mb 0.01 in0.3 mm 0.00 in0.0 mm 0.07 in1.8 mm
10:15 PM 63.8°F17.7°C 61.7°F16.5°C 93% 10.0 mph ENE16.1 kmh ENE 12.0 mph19.3 kmh 29.56 in1001.0 mb 0.01 in0.3 mm 0.00 in0.0 mm 0.07 in1.8 mm
10:20 PM 62.6°F17.0°C 60.6°F15.9°C 93% 19.0 mph ENE30.6 kmh ENE 21.0 mph33.8 kmh 29.57 in1001.4 mb 0.01 in0.3 mm 0.00 in0.0 mm 0.07 in1.8 mm
10:25 PM 61.8°F16.6°C 60.1°F15.6°C 94% 20.0 mph ENE32.2 kmh ENE 21.0 mph33.8 kmh 29.57 in1001.4 mb 0.01 in0.3 mm 0.00 in0.0 mm 0.07 in1.8 mm
10:30 PM 61.2°F16.2°C 59.5°F15.3°C 94% 21.0 mph E33.8 kmh E 23.0 mph37.0 kmh 29.57 in1001.4 mb 0.01 in0.3 mm 0.00 in0.0 mm 0.07 in1.8 mm
10:35 PM 61.0°F16.1°C 59.6°F15.3°C 95% 18.0 mph ENE29.0 kmh ENE 23.0 mph37.0 kmh 29.58 in1001.7 mb 0.01 in0.3 mm 0.00 in0.0 mm 0.07 in1.8 mm
10:40 PM 60.9°F16.1°C 59.5°F15.3°C 95% 21.0 mph E33.8 kmh E 21.0 mph33.8 kmh 29.57 in1001.4 mb 0.01 in0.3 mm 0.00 in0.0 mm 0.07 in1.8 mm
10:45 PM 61.0°F16.1°C 59.9°F15.5°C 96% 20.0 mph ENE32.2 kmh ENE 23.0 mph37.0 kmh 29.57 in1001.4 mb 0.01 in0.3 mm 0.00 in0.0 mm 0.07 in1.8 mm
10:50 PM 61.0°F16.1°C 59.9°F15.5°C 96% 22.0 mph E35.4 kmh E 24.0 mph38.6 kmh 29.57 in1001.4 mb 0.01 in0.3 mm 0.00 in0.0 mm 0.07 in1.8 mm
10:55 PM 60.9°F16.1°C 59.8°F15.4°C 96% 16.0 mph ENE25.7 kmh ENE 16.0 mph25.7 kmh 29.57 in1001.4 mb 0.00 in0.0 mm 0.00 in0.0 mm 0.07 in1.8 mm
11:00 PM 60.9°F16.1°C 59.8°F15.4°C 96% 17.0 mph ENE27.4 kmh ENE 19.0 mph30.6 kmh 29.57 in1001.4 mb 0.00 in0.0 mm 0.00 in0.0 mm 0.07 in1.8 mm
11:05 PM 60.8°F16.0°C 59.7°F15.4°C 96% 17.0 mph ENE27.4 kmh ENE 19.0 mph30.6 kmh 29.56 in1001.0 mb 0.00 in0.0 mm 0.00 in0.0 mm 0.07 in1.8 mm
11:10 PM 60.8°F16.0°C 59.7°F15.4°C 96% 18.0 mph ENE29.0 kmh ENE 18.0 mph29.0 kmh 29.57 in1001.4 mb 0.00 in0.0 mm 0.00 in0.0 mm 0.07 in1.8 mm
11:15 PM 60.9°F16.1°C 59.8°F15.4°C 96% 18.0 mph ENE29.0 kmh ENE 19.0 mph30.6 kmh 29.57 in1001.4 mb 0.00 in0.0 mm 0.00 in0.0 mm 0.07 in1.8 mm
11:20 PM 60.7°F15.9°C 59.6°F15.3°C 96% 17.0 mph E27.4 kmh E 22.0 mph35.4 kmh 29.57 in1001.4 mb 0.00 in0.0 mm 0.00 in0.0 mm 0.07 in1.8 mm
11:25 PM 60.7°F15.9°C 59.6°F15.3°C 96% 16.0 mph ENE25.7 kmh ENE 18.0 mph29.0 kmh 29.56 in1001.0 mb 0.00 in0.0 mm 0.00 in0.0 mm 0.07 in1.8 mm
11:30 PM 60.7°F15.9°C 59.6°F15.3°C 96% 16.0 mph ENE25.7 kmh ENE 20.0 mph32.2 kmh 29.57 in1001.4 mb 0.00 in0.0 mm 0.00 in0.0 mm 0.07 in1.8 mm
11:35 PM 60.9°F16.1°C 59.8°F15.4°C 96% 16.0 mph E25.7 kmh E 20.0 mph32.2 kmh 29.58 in1001.7 mb 0.00 in0.0 mm 0.00 in0.0 mm 0.07 in1.8 mm
11:40 PM 61.1°F16.2°C 60.0°F15.6°C 96% 15.0 mph ENE24.1 kmh ENE 15.0 mph24.1 kmh 29.58 in1001.7 mb 0.00 in0.0 mm 0.00 in0.0 mm 0.07 in1.8 mm
11:45 PM 61.3°F16.3°C 60.4°F15.8°C 97% 13.0 mph ENE20.9 kmh ENE 17.0 mph27.4 kmh 29.57 in1001.4 mb 0.00 in0.0 mm 0.00 in0.0 mm 0.07 in1.8 mm
11:50 PM 61.6°F16.4°C 60.7°F15.9°C 97% 12.0 mph E19.3 kmh E 17.0 mph27.4 kmh 29.58 in1001.7 mb 0.00 in0.0 mm 0.00 in0.0 mm 0.07 in1.8 mm
11:55 PM 61.9°F16.6°C 61.0°F16.1°C 97% 16.0 mph E25.7 kmh E 17.0 mph27.4 kmh 29.57 in1001.4 mb 0.00 in0.0 mm 0.00 in0.0 mm 0.07 in1.8 mm